Airfield :
LOGIN :

Register | Disclaimer

   EN    FR    IT 

 










Legend :    VFR   Marginal VFR   IFR   Intensive IFR   Very Intensive IFR
Visi :
Ceiling :
>= 8 km
>= 3000ft
5 to 8 km
1000 to 3000 ft
1500m to 5 km
500 to 1000 ft
800 to 1500m
200 to 500 ft
< 800m
< 200 ft
Symbols :   Thunderstorms  Fog  Heavy snow  Heavy precipitations  Wind > 20 kt
SIGMETs :     Misc.  Thunderstorms  Icing  Turbulence  Mountain Waves  Volcanic Ashes







- Airport Elevation : 112 ft
- IATA code : SVQ


LEZL - Sevilla San Pablo

CURRENT METAR :
  • 150030Z AUTO 22004KT 4600 BR OVC006/// 14/13 Q1020

EXPIRED METARs :
  • 150000Z 23006KT 7000 BKN008 SCT045 14/13 Q1020 NOSIG
  • 142330Z 22006KT 8000 SCT007 BKN045 14/13 Q1021 NOSIG
  • 142300Z 21003KT 170V230 9999 SCT007 SCT035 14/12 Q1021 NOSIG
  • 142230Z 20003KT 160V240 9999 BKN009 SCT035 14/12 Q1021 NOSIG
  • 142200Z 19003KT 150V240 9999 BKN010 SCT035 14/12 Q1021 NOSIG

TAF TAF LEZL
Valid from the 14 at 21:00 until the 15 at 21:00 UTC


142000Z 1421/1521 22004KT 9999 SCT020 TX17/1515Z TN06/1509Z
PROB40
TEMPO 1421/1512 BKN014
PROB40
TEMPO 1500/1521 4000 DZ BR
No reported NOTAMs for that airfield.
1 SIGMET reported for the Madrid FIR (LECM) :
 
Severe turbulence
LECM SIGMET 1 VALID 150015/150400 LEVA
LECM MADRID FIR SEV TURB FCST E OF LINE N4453 W00734 - N4334 W00649 SFC/FL040 STNR WKN=



MET'MAP, your aeronautical weather chart ! - Copyright ORBIFLY December 2007 - Disclaimer

ORBIFLY MET'MAP TEAM :

Programming & Development : Alexandra Zaïnal
Concept & Development : Baudouin d'Aumeries
Co-Development & Prog : Marc-Olivier Méhu
Technical & hardware support : Manuel Goepfert

Contact : metmap@orbifly.com




SOURCES & CREDITS :

   NOAA